createdAt,value
2019-03-21T00:00:43.652Z,101948.83
2019-03-21T00:03:14.668Z,101957.70
2019-03-21T00:05:45.678Z,101953.08
2019-03-21T00:08:16.843Z,101946.63
2019-03-21T00:11:03.110Z,101947.87
2019-03-21T00:13:34.063Z,101952.41
2019-03-21T00:16:07.801Z,101946.80
2019-03-21T00:18:38.922Z,101946.80
2019-03-21T00:21:10.062Z,101941.91
2019-03-21T00:23:41.113Z,101938.16
2019-03-21T00:26:12.234Z,101943.83
2019-03-21T00:28:43.407Z,101940.67
2019-03-21T00:31:14.453Z,101942.56
2019-03-21T00:33:46.344Z,101942.58
2019-03-21T00:36:17.223Z,101936.00
2019-03-21T00:38:48.182Z,101944.65
2019-03-21T00:41:19.227Z,101945.60
2019-03-21T00:43:50.359Z,101936.45
2019-03-21T00:46:21.422Z,101940.20
2019-03-21T00:48:52.473Z,101944.16
2019-03-21T00:51:23.538Z,101934.96
2019-03-21T00:53:54.703Z,101943.64
2019-03-21T00:56:25.764Z,101946.17
2019-03-21T00:58:56.753Z,101938.23
2019-03-21T01:01:27.807Z,101938.23
2019-03-21T01:03:59.895Z,101940.27
2019-03-21T01:06:31.041Z,101934.36
2019-03-21T01:09:02.148Z,101934.53
2019-03-21T01:11:34.399Z,101930.33
2019-03-21T01:14:05.634Z,101931.53
2019-03-21T01:16:36.705Z,101936.95
2019-03-21T01:19:07.818Z,101939.35
2019-03-21T01:21:38.964Z,101940.41
2019-03-21T01:24:10.050Z,101929.64
2019-03-21T01:26:42.187Z,101928.77
2019-03-21T01:29:13.350Z,101930.70
2019-03-21T01:31:45.418Z,101929.81
2019-03-21T01:34:16.627Z,101936.92
2019-03-21T01:36:47.687Z,101935.72
2019-03-21T01:39:19.963Z,101931.05
2019-03-21T01:41:51.065Z,101926.88
2019-03-21T01:44:22.088Z,101932.27
2019-03-21T01:46:53.153Z,101927.67
2019-03-21T01:49:24.253Z,101932.91
2019-03-21T01:51:55.391Z,101931.13
2019-03-21T01:54:26.531Z,101931.69
2019-03-21T01:56:57.589Z,101935.96
2019-03-21T01:59:28.616Z,101937.56
2019-03-21T02:01:59.622Z,101934.48
2019-03-21T02:04:30.660Z,101932.75
2019-03-21T02:07:01.732Z,101931.80
2019-03-21T02:09:34.152Z,101930.46
2019-03-21T02:12:05.363Z,101936.09
2019-03-21T02:14:36.507Z,101931.87
2019-03-21T02:17:07.498Z,101944.06
2019-03-21T02:19:38.586Z,101945.41
2019-03-21T02:22:09.661Z,101937.26
2019-03-21T02:24:41.264Z,101936.16
2019-03-21T02:27:12.282Z,101934.52
2019-03-21T02:29:43.473Z,101933.23
2019-03-21T02:32:14.458Z,101927.95
2019-03-21T02:34:46.550Z,101930.39
2019-03-21T02:37:17.552Z,101919.98
2019-03-21T02:39:59.343Z,101928.99
2019-03-21T02:42:21.460Z,101925.02
2019-03-21T02:45:07.233Z,101925.91
2019-03-21T02:47:25.332Z,101932.17
2019-03-21T02:49:56.666Z,101935.55
2019-03-21T02:52:27.732Z,101936.10
2019-03-21T02:54:58.871Z,101933.74
2019-03-21T02:57:30.049Z,101930.76
2019-03-21T03:00:01.173Z,101925.14
2019-03-21T03:02:33.270Z,101926.26
2019-03-21T03:05:07.438Z,101930.72
2019-03-21T03:07:38.627Z,101929.15
2019-03-21T03:10:12.985Z,101925.70
2019-03-21T03:12:44.193Z,101929.30
2019-03-21T03:15:23.160Z,101927.64
2019-03-21T03:17:51.340Z,101929.36
2019-03-21T03:20:22.560Z,101937.17
2019-03-21T03:22:53.716Z,101927.27
2019-03-21T03:25:24.885Z,101929.73
2019-03-21T03:28:02.103Z,101926.14
2019-03-21T03:30:33.325Z,101930.38
2019-03-21T03:33:04.360Z,101931.33
2019-03-21T03:35:35.464Z,101929.48
2019-03-21T03:38:06.544Z,101932.17
2019-03-21T03:40:52.784Z,101937.27
2019-03-21T03:43:23.935Z,101931.86
2019-03-21T03:45:55.134Z,101937.91
2019-03-21T03:48:27.711Z,101942.50
2019-03-21T03:50:58.732Z,101941.33
2019-03-21T03:53:29.721Z,101941.52
2019-03-21T03:56:00.837Z,101948.94
2019-03-21T03:58:46.929Z,101946.79
2019-03-21T04:01:18.142Z,101945.72
2019-03-21T04:03:49.160Z,101950.76
2019-03-21T04:06:20.158Z,101950.59
2019-03-21T04:08:51.229Z,101950.72
2019-03-21T04:11:22.343Z,101959.21
2019-03-21T04:13:53.792Z,101961.48
2019-03-21T04:16:24.957Z,101961.45
2019-03-21T04:18:56.010Z,101963.59
2019-03-21T04:21:27.373Z,101969.14
2019-03-21T04:24:00.058Z,101968.67
2019-03-21T04:26:34.779Z,101967.66
2019-03-21T04:29:05.783Z,101975.48
2019-03-21T04:31:37.068Z,101972.98
2019-03-21T04:34:10.319Z,101971.78
2019-03-21T04:36:41.303Z,101971.50
2019-03-21T04:39:12.498Z,101973.42
2019-03-21T04:41:45.381Z,101967.97
2019-03-21T04:44:16.402Z,101974.00
2019-03-21T04:46:47.575Z,101972.17
2019-03-21T04:49:18.618Z,101977.84
2019-03-21T04:51:49.771Z,101976.55
2019-03-21T04:54:20.903Z,101979.37
2019-03-21T04:56:52.044Z,101980.20
2019-03-21T04:59:23.190Z,101983.70
2019-03-21T05:01:54.239Z,101976.87
2019-03-21T05:04:26.977Z,101981.65
2019-03-21T05:06:58.126Z,101979.17
2019-03-21T05:09:29.336Z,101980.93
2019-03-21T05:12:00.515Z,101980.70
2019-03-21T05:14:31.514Z,101976.14
2019-03-21T05:17:02.508Z,101974.40
2019-03-21T05:19:33.567Z,101976.66
2019-03-21T05:22:04.711Z,101972.91
2019-03-21T05:24:35.801Z,101976.92
2019-03-21T05:27:06.869Z,101977.91
2019-03-21T05:29:37.881Z,101989.80
2019-03-21T05:32:08.970Z,101989.26
2019-03-21T05:34:40.008Z,101988.66
2019-03-21T05:37:11.229Z,102003.25
2019-03-21T05:39:42.659Z,101990.37
2019-03-21T05:42:14.875Z,101989.42
2019-03-21T05:44:45.968Z,101978.13
2019-03-21T05:47:17.063Z,101978.38
2019-03-21T05:49:48.258Z,101989.90
2019-03-21T05:52:19.362Z,101986.66
2019-03-21T05:54:50.493Z,101978.30
2019-03-21T05:57:21.468Z,101980.25
2019-03-21T05:59:52.649Z,101979.70
2019-03-21T06:02:23.736Z,101971.73
2019-03-21T06:04:54.733Z,101976.61
2019-03-21T06:07:29.203Z,101972.44
2019-03-21T06:10:00.358Z,101969.18
2019-03-21T06:12:33.386Z,101970.45
2019-03-21T06:15:07.973Z,101967.34
2019-03-21T06:17:38.945Z,101970.11
2019-03-21T06:20:25.690Z,101967.67
2019-03-21T06:23:17.960Z,101968.14
2019-03-21T06:25:59.306Z,101970.53
2019-03-21T06:28:31.378Z,101952.94
2019-03-21T06:31:02.581Z,101952.94
2019-03-21T06:33:33.668Z,101957.34
2019-03-21T06:36:04.755Z,101955.55
2019-03-21T06:38:35.762Z,101947.89
2019-03-21T06:41:06.912Z,101943.05
2019-03-21T06:43:38.049Z,101941.13
2019-03-21T06:46:09.233Z,101946.80
2019-03-21T06:48:40.351Z,101941.68
2019-03-21T06:51:11.417Z,101948.72
2019-03-21T06:53:43.464Z,101948.72
2019-03-21T06:56:14.476Z,101943.82
2019-03-21T06:58:45.589Z,101944.36
2019-03-21T07:01:16.733Z,101938.63
2019-03-21T07:03:48.834Z,101947.39
2019-03-21T07:06:19.880Z,101939.66
2019-03-21T07:08:50.985Z,101939.66
2019-03-21T07:11:22.169Z,101941.77
2019-03-21T07:13:53.474Z,101941.77
2019-03-21T07:16:24.596Z,101925.51
2019-03-21T07:18:56.679Z,101936.39
2019-03-21T07:21:27.779Z,101938.16
2019-03-21T07:23:58.872Z,101931.87
2019-03-21T07:26:29.993Z,101930.83
2019-03-21T07:29:00.884Z,101928.13
2019-03-21T07:31:32.076Z,101934.64
2019-03-21T07:34:02.937Z,101928.55
2019-03-21T07:36:33.964Z,101925.02
2019-03-21T07:39:07.022Z,101921.34
2019-03-21T07:41:37.926Z,101925.45
2019-03-21T07:44:08.886Z,101924.30
2019-03-21T07:46:39.855Z,101922.20
2019-03-21T07:49:10.858Z,101925.59
2019-03-21T07:51:41.874Z,101913.36
2019-03-21T07:54:12.776Z,101913.45
2019-03-21T07:56:43.907Z,101915.63
2019-03-21T07:59:14.832Z,101915.30
2019-03-21T08:01:45.928Z,101908.41
2019-03-21T08:04:16.893Z,101907.43
2019-03-21T08:06:48.012Z,101895.75
2019-03-21T08:09:19.529Z,101896.91
2019-03-21T08:11:50.482Z,101899.57
2019-03-21T08:14:21.625Z,101893.04
2019-03-21T08:16:52.667Z,101889.39
2019-03-21T08:19:23.673Z,101889.27
2019-03-21T08:21:55.090Z,101883.05
2019-03-21T08:24:26.079Z,101883.53
2019-03-21T08:26:56.991Z,101884.56
2019-03-21T08:29:27.896Z,101878.36
2019-03-21T08:31:58.837Z,101873.91
2019-03-21T08:34:29.870Z,101871.50
2019-03-21T08:37:00.970Z,101869.53
2019-03-21T08:39:31.898Z,101865.09
2019-03-21T08:42:02.808Z,101871.06
2019-03-21T08:44:33.705Z,101860.61
2019-03-21T08:47:04.717Z,101867.11
2019-03-21T08:49:35.757Z,101856.38
2019-03-21T08:52:06.635Z,101861.53
2019-03-21T08:54:37.632Z,101850.72
2019-03-21T08:57:08.539Z,101843.95
2019-03-21T08:59:39.642Z,101853.42
2019-03-21T09:02:11.055Z,101841.97
2019-03-21T09:04:43.200Z,101845.84
2019-03-21T09:07:14.168Z,101839.77
2019-03-21T09:09:45.104Z,101841.86
2019-03-21T09:12:16.056Z,101831.03
2019-03-21T09:14:47.001Z,101826.39
2019-03-21T09:17:18.028Z,101829.61
2019-03-21T09:19:49.069Z,101822.33
2019-03-21T09:22:19.955Z,101835.36
2019-03-21T09:24:51.050Z,101825.03
2019-03-21T09:27:22.018Z,101827.78
2019-03-21T09:29:53.949Z,101822.38
2019-03-21T09:32:25.293Z,101818.84
2019-03-21T09:34:56.232Z,101832.59
2019-03-21T09:37:27.211Z,101839.87
2019-03-21T09:39:58.221Z,101821.21
2019-03-21T09:42:29.194Z,101829.21
2019-03-21T09:45:00.061Z,101816.47
2019-03-21T09:47:31.047Z,101820.05
2019-03-21T09:50:02.001Z,101822.52
2019-03-21T09:52:33.048Z,101813.14
2019-03-21T09:55:06.824Z,101820.78
2019-03-21T09:57:37.802Z,101803.79
2019-03-21T10:00:10.242Z,101807.13
2019-03-21T10:02:41.219Z,101807.28
2019-03-21T10:05:13.255Z,101805.59
2019-03-21T10:07:44.311Z,101798.66
2019-03-21T10:10:18.700Z,101784.56
2019-03-21T10:12:49.749Z,101790.42
2019-03-21T10:15:21.026Z,101790.84
2019-03-21T10:17:52.162Z,101780.05
2019-03-21T10:20:23.181Z,101774.23
2019-03-21T10:22:54.311Z,101770.42
2019-03-21T10:25:26.661Z,101773.00
2019-03-21T10:27:57.839Z,101768.41
2019-03-21T10:30:37.036Z,101767.42
2019-03-21T10:33:09.475Z,101762.14
2019-03-21T10:35:40.355Z,101757.95
2019-03-21T10:38:11.450Z,101746.71
2019-03-21T10:40:42.566Z,101741.94
2019-03-21T10:43:13.527Z,101742.41
2019-03-21T10:45:44.550Z,101735.47
2019-03-21T10:48:15.495Z,101732.54
2019-03-21T10:50:46.347Z,101739.08
2019-03-21T10:53:17.268Z,101717.25
2019-03-21T10:55:48.217Z,101714.06
2019-03-21T10:58:19.319Z,101709.71
2019-03-21T11:00:50.282Z,101716.77
2019-03-21T11:03:21.160Z,101702.78
2019-03-21T11:05:52.182Z,101704.70
2019-03-21T11:08:23.220Z,101701.80
2019-03-21T11:10:54.259Z,101700.51
2019-03-21T11:13:25.292Z,101700.36
2019-03-21T11:15:56.235Z,101689.98
2019-03-21T11:18:35.708Z,101699.61
2019-03-21T11:21:00.071Z,101686.53
2019-03-21T11:23:31.138Z,101680.98
2019-03-21T11:26:02.251Z,101682.09
2019-03-21T11:28:33.266Z,101682.72
2019-03-21T11:31:04.524Z,101685.22
2019-03-21T11:33:35.552Z,101689.36
2019-03-21T11:36:06.686Z,101685.50
2019-03-21T11:38:37.809Z,101678.50
2019-03-21T11:41:08.716Z,101680.00
2019-03-21T11:43:39.684Z,101677.66
2019-03-21T11:46:10.565Z,101671.41
2019-03-21T11:48:41.563Z,101671.75
2019-03-21T11:51:12.475Z,101677.16
2019-03-21T11:53:44.139Z,101678.52
2019-03-21T11:56:15.260Z,101675.58
2019-03-21T11:58:46.119Z,101668.55
2019-03-21T12:01:17.129Z,101665.60
2019-03-21T12:03:48.140Z,101654.59
2019-03-21T12:06:19.218Z,101665.48
2019-03-21T12:08:50.149Z,101651.80
2019-03-21T12:11:21.469Z,101657.72
2019-03-21T12:13:52.567Z,101660.27
2019-03-21T12:16:24.065Z,101635.28
2019-03-21T12:18:55.035Z,101643.16
2019-03-21T12:21:25.966Z,101637.22
2019-03-21T12:23:56.917Z,101639.68
2019-03-21T12:26:28.028Z,101640.66
2019-03-21T12:28:58.990Z,101626.22
2019-03-21T12:31:30.043Z,101618.77
2019-03-21T12:34:01.186Z,101624.98
2019-03-21T12:36:32.678Z,101621.92
2019-03-21T12:39:05.469Z,101622.27
2019-03-21T12:41:36.596Z,101614.11
2019-03-21T12:44:07.785Z,101599.07
2019-03-21T12:46:38.943Z,101612.08
2019-03-21T12:49:10.009Z,101618.88
2019-03-21T12:51:41.351Z,101611.56
2019-03-21T12:54:12.400Z,101610.00
2019-03-21T12:56:43.549Z,101611.23
2019-03-21T12:59:14.683Z,101603.77
2019-03-21T13:01:45.867Z,101595.59
2019-03-21T13:04:16.916Z,101595.58
2019-03-21T13:06:47.900Z,101603.84
2019-03-21T13:09:18.949Z,101595.00
2019-03-21T13:11:49.995Z,101598.09
2019-03-21T13:14:21.026Z,101604.77
2019-03-21T13:16:51.951Z,101588.95
2019-03-21T13:19:23.119Z,101607.10
2019-03-21T13:21:54.077Z,101603.05
2019-03-21T13:24:25.201Z,101597.73
2019-03-21T13:26:56.329Z,101592.44
2019-03-21T13:29:27.282Z,101599.22
2019-03-21T13:31:59.340Z,101598.22
2019-03-21T13:34:30.210Z,101590.60
2019-03-21T13:37:01.215Z,101581.73
2019-03-21T13:39:32.252Z,101592.31
2019-03-21T13:42:03.204Z,101571.78
2019-03-21T13:44:35.207Z,101567.98
2019-03-21T13:47:06.295Z,101588.80
2019-03-21T13:49:37.291Z,101582.37
2019-03-21T13:52:08.561Z,101583.73
2019-03-21T13:54:39.581Z,101584.50
2019-03-21T13:57:10.563Z,101590.92
2019-03-21T13:59:41.910Z,101584.66
2019-03-21T14:02:12.798Z,101587.46
2019-03-21T14:04:43.916Z,101578.95
2019-03-21T14:07:14.866Z,101581.67
2019-03-21T14:09:45.832Z,101572.70
2019-03-21T14:12:16.925Z,101569.75
2019-03-21T14:14:48.045Z,101584.39
2019-03-21T14:17:22.215Z,101573.31
2019-03-21T14:19:51.798Z,101574.80
2019-03-21T14:22:22.857Z,101578.50
2019-03-21T14:24:53.890Z,101586.36
2019-03-21T14:27:26.108Z,101581.81
2019-03-21T14:30:01.816Z,101591.08
2019-03-21T14:32:30.451Z,101582.80
2019-03-21T14:35:01.594Z,101588.23
2019-03-21T14:37:32.753Z,101588.23
2019-03-21T14:40:06.006Z,101590.33
2019-03-21T14:42:37.375Z,101599.68
2019-03-21T14:45:10.512Z,101590.43
2019-03-21T14:47:42.597Z,101598.70
2019-03-21T14:50:15.030Z,101590.56
2019-03-21T14:52:46.039Z,101594.77
2019-03-21T14:55:17.142Z,101589.21
2019-03-21T14:57:48.635Z,101588.84
2019-03-21T15:00:20.055Z,101592.80
2019-03-21T15:02:51.183Z,101596.36
2019-03-21T15:05:22.263Z,101591.55
2019-03-21T15:07:53.743Z,101605.47
2019-03-21T15:10:24.925Z,101601.54
2019-03-21T15:12:56.078Z,101602.66
2019-03-21T15:15:27.044Z,101611.02
2019-03-21T15:17:58.845Z,101598.45
2019-03-21T15:20:30.028Z,101617.30
2019-03-21T15:23:01.233Z,101613.84
2019-03-21T15:25:32.547Z,101602.39
2019-03-21T15:28:04.056Z,101614.09
2019-03-21T15:30:35.053Z,101610.41
2019-03-21T15:33:06.231Z,101620.12
2019-03-21T15:35:37.347Z,101611.00
2019-03-21T15:38:08.393Z,101605.69
2019-03-21T15:40:39.558Z,101616.27
2019-03-21T15:43:10.623Z,101610.86
2019-03-21T15:45:41.748Z,101616.16
2019-03-21T15:48:12.799Z,101611.07
2019-03-21T15:50:43.839Z,101615.63
2019-03-21T15:53:14.998Z,101608.11
2019-03-21T15:55:46.146Z,101612.67
2019-03-21T15:58:17.545Z,101606.36
2019-03-21T16:00:48.628Z,101610.31
2019-03-21T16:03:19.798Z,101601.09
2019-03-21T16:05:51.030Z,101606.10
2019-03-21T16:08:22.351Z,101607.33
2019-03-21T16:10:56.153Z,101614.48
2019-03-21T16:13:27.398Z,101615.20
2019-03-21T16:15:58.524Z,101619.77
2019-03-21T16:18:29.608Z,101615.19
2019-03-21T16:21:00.930Z,101620.23
2019-03-21T16:23:32.129Z,101624.19
2019-03-21T16:26:03.306Z,101617.33
2019-03-21T16:28:34.546Z,101620.73
2019-03-21T16:31:05.686Z,101622.17
2019-03-21T16:33:37.081Z,101626.02
2019-03-21T16:36:08.213Z,101619.78
2019-03-21T16:38:39.287Z,101628.65
2019-03-21T16:41:10.266Z,101635.87
2019-03-21T16:43:41.493Z,101640.84
2019-03-21T16:46:12.603Z,101639.11
2019-03-21T16:48:43.694Z,101641.94
2019-03-21T16:51:14.866Z,101650.66
2019-03-21T16:53:45.936Z,101650.34
2019-03-21T16:56:17.069Z,101654.90
2019-03-21T16:58:48.210Z,101660.87
2019-03-21T17:01:19.446Z,101650.40
2019-03-21T17:03:50.604Z,101656.40
2019-03-21T17:06:21.752Z,101661.75
2019-03-21T17:08:52.853Z,101671.09
2019-03-21T17:11:23.969Z,101667.00
2019-03-21T17:13:55.081Z,101673.25
2019-03-21T17:16:26.177Z,101671.19
2019-03-21T17:18:57.422Z,101688.72
2019-03-21T17:21:28.420Z,101685.34
2019-03-21T17:23:59.561Z,101691.76
2019-03-21T17:26:30.936Z,101699.79
2019-03-21T17:29:02.642Z,101719.31
2019-03-21T17:31:33.874Z,101706.05
2019-03-21T17:34:05.201Z,101718.75
2019-03-21T17:36:36.362Z,101726.53
2019-03-21T17:39:09.314Z,101723.19
2019-03-21T17:41:43.237Z,101725.41
2019-03-21T17:44:14.653Z,101729.69
2019-03-21T17:46:45.691Z,101734.86
2019-03-21T17:49:16.884Z,101734.86
2019-03-21T17:51:47.995Z,101722.26
2019-03-21T17:54:19.184Z,101722.26
2019-03-21T17:56:50.257Z,101728.50
2019-03-21T17:59:21.297Z,101727.41
2019-03-21T18:01:52.242Z,101733.95
2019-03-21T18:04:23.361Z,101733.95
2019-03-21T18:06:54.385Z,101750.64
2019-03-21T18:09:25.459Z,101745.57
2019-03-21T18:11:56.394Z,101747.61
2019-03-21T18:14:28.346Z,101747.16
2019-03-21T18:16:59.307Z,101756.41
2019-03-21T18:19:30.344Z,101756.41
2019-03-21T18:22:01.738Z,101774.17
2019-03-21T18:24:32.687Z,101761.14
2019-03-21T18:27:03.749Z,101757.88
2019-03-21T18:29:35.027Z,101759.83
2019-03-21T18:32:06.067Z,101760.14
2019-03-21T18:34:37.174Z,101765.34
2019-03-21T18:37:08.154Z,101761.59
2019-03-21T18:39:39.308Z,101761.59
2019-03-21T18:42:10.452Z,101781.73
2019-03-21T18:44:41.549Z,101770.97
2019-03-21T18:47:12.623Z,101770.97
2019-03-21T18:49:43.851Z,101775.95
2019-03-21T18:52:15.898Z,101786.88
2019-03-21T18:54:47.083Z,101776.84
2019-03-21T18:57:18.285Z,101793.98
2019-03-21T18:59:49.269Z,101782.80
2019-03-21T19:02:20.263Z,101782.80
2019-03-21T19:04:51.389Z,101790.79
2019-03-21T19:07:22.498Z,101791.27
2019-03-21T19:09:53.612Z,101794.05
2019-03-21T19:12:24.493Z,101795.80
2019-03-21T19:14:55.556Z,101795.80
2019-03-21T19:17:26.459Z,101801.30
2019-03-21T19:19:57.443Z,101815.52
2019-03-21T19:22:28.441Z,101808.42
2019-03-21T19:24:59.510Z,101823.88
2019-03-21T19:27:30.551Z,101804.46
2019-03-21T19:30:02.689Z,101811.58
2019-03-21T19:32:33.708Z,101811.67
2019-03-21T19:35:05.424Z,101819.55
2019-03-21T19:37:36.566Z,101806.97
2019-03-21T19:40:14.067Z,101816.66
2019-03-21T19:42:45.031Z,101802.83
2019-03-21T19:45:17.544Z,101808.86
2019-03-21T19:47:48.787Z,101797.41
2019-03-21T19:50:20.645Z,101797.41
2019-03-21T19:52:51.849Z,101797.03
2019-03-21T19:55:30.716Z,101796.25
2019-03-21T19:57:56.814Z,101793.06
2019-03-21T20:00:28.332Z,101793.63
2019-03-21T20:02:59.335Z,101799.33
2019-03-21T20:05:30.384Z,101801.14
2019-03-21T20:08:01.399Z,101801.42
2019-03-21T20:10:32.724Z,101805.78
2019-03-21T20:13:03.691Z,101798.63
2019-03-21T20:15:36.029Z,101802.30
2019-03-21T20:18:07.191Z,101796.92
2019-03-21T20:20:38.462Z,101803.09
2019-03-21T20:23:09.866Z,101802.13
2019-03-21T20:25:43.053Z,101805.32
2019-03-21T20:28:14.008Z,101806.70
2019-03-21T20:30:45.145Z,101792.98
2019-03-21T20:33:16.250Z,101792.98
2019-03-21T20:35:47.294Z,101797.23
2019-03-21T20:38:18.259Z,101797.23
2019-03-21T20:40:49.344Z,101792.28
2019-03-21T20:43:20.513Z,101797.38
2019-03-21T20:45:51.553Z,101798.78
2019-03-21T20:48:28.005Z,101801.86
2019-03-21T20:50:59.067Z,101801.04
2019-03-21T20:53:30.201Z,101799.12
2019-03-21T20:56:01.347Z,101797.77
2019-03-21T20:58:32.485Z,101798.51
2019-03-21T21:01:04.312Z,101798.05
2019-03-21T21:03:35.492Z,101796.48
2019-03-21T21:06:06.543Z,101794.23
2019-03-21T21:08:38.771Z,101789.69
2019-03-21T21:11:09.840Z,101784.88
2019-03-21T21:13:40.968Z,101788.34
2019-03-21T21:16:12.132Z,101789.09
2019-03-21T21:18:43.222Z,101780.73
2019-03-21T21:21:14.385Z,101778.59
2019-03-21T21:23:45.707Z,101775.63
2019-03-21T21:26:16.904Z,101780.22
2019-03-21T21:28:47.963Z,101779.95
2019-03-21T21:31:19.087Z,101776.63
2019-03-21T21:37:12.655Z,101785.08
2019-03-21T21:39:44.896Z,101778.86
2019-03-21T21:42:16.355Z,101774.59
2019-03-21T21:44:47.555Z,101772.95
2019-03-21T21:47:18.637Z,101776.00
2019-03-21T21:49:49.629Z,101778.48
2019-03-21T21:52:20.718Z,101777.13
2019-03-21T21:54:51.803Z,101774.45
2019-03-21T21:57:23.006Z,101771.52
2019-03-21T21:59:54.102Z,101767.37
2019-03-21T22:05:32.880Z,101767.76
2019-03-21T22:08:04.107Z,101768.44
2019-03-21T22:10:37.796Z,101775.80
2019-03-21T22:13:17.138Z,101776.06
2019-03-21T22:16:24.544Z,101772.52
2019-03-21T22:18:55.578Z,101772.41
2019-03-21T22:21:26.680Z,101769.66
2019-03-21T22:23:57.653Z,101778.50
2019-03-21T22:26:30.114Z,101776.17
2019-03-21T22:29:01.590Z,101771.45
2019-03-21T22:31:32.708Z,101777.11
2019-03-21T22:34:03.783Z,101776.49
2019-03-21T22:36:35.612Z,101778.11
2019-03-21T22:39:08.055Z,101785.02
2019-03-21T22:45:11.121Z,101774.52
2019-03-21T22:47:42.249Z,101780.90
2019-03-21T22:50:15.632Z,101790.23
2019-03-21T22:52:46.741Z,101780.41
2019-03-21T22:55:17.812Z,101784.31
2019-03-21T22:57:48.973Z,101780.05
2019-03-21T23:00:22.631Z,101772.65
2019-03-21T23:02:55.333Z,101775.03
2019-03-21T23:05:26.440Z,101769.81
2019-03-21T23:07:57.604Z,101770.25
2019-03-21T23:10:28.703Z,101771.41
2019-03-21T23:12:59.890Z,101768.09
2019-03-21T23:15:30.880Z,101771.58
2019-03-21T23:18:01.969Z,101767.14
2019-03-21T23:20:33.063Z,101773.67
2019-03-21T23:23:04.228Z,101774.52
2019-03-21T23:25:35.209Z,101777.59
2019-03-21T23:28:07.260Z,101771.30
2019-03-21T23:30:38.432Z,101773.53
2019-03-21T23:33:09.621Z,101771.86
2019-03-21T23:35:40.752Z,101770.58
2019-03-21T23:38:11.804Z,101771.70
2019-03-21T23:40:42.945Z,101766.86
2019-03-21T23:43:14.092Z,101765.84
2019-03-21T23:45:45.131Z,101753.97
2019-03-21T23:48:16.172Z,101755.98
2019-03-21T23:50:47.313Z,101760.03
2019-03-21T23:53:18.271Z,101755.48
2019-03-21T23:55:52.805Z,101746.80
2019-03-21T23:58:36.996Z,101750.93
